Time;durP1;ratioP1;P1;durP2;ratioP2;P2;SDS_P1;SDS_P2;PMS_P1;PMS_P2;Temp;Humidity;BMP_temperature;BMP_pressure;BME280_temperature;BME280_humidity;BME280_pressure;Samples;Min_cycle;Max_cycle;Signal;HPM_P1;HPM_P2
2022/10/11 00:00:03;;;;;;;4.93;2.00;;;;;;;;;;5051698;28;20103;-72
2022/10/11 00:02:29;;;;;;;5.00;1.70;;;;;;;;;;5036458;28;20056;-72
2022/10/11 00:04:55;;;;;;;5.68;2.90;;;;;;;;;;5048800;28;20100;-72
2022/10/11 00:07:21;;;;;;;3.42;2.13;;;;;;;;;;5053393;28;20637;-72
2022/10/11 00:09:47;;;;;;;6.63;2.60;;;;;;;;;;5054358;28;20045;-72
2022/10/11 00:12:13;;;;;;;4.75;1.80;;;;;;;;;;5057534;28;20049;-72
2022/10/11 00:14:39;;;;;;;10.25;2.50;;;;;;;;;;5054384;28;20120;-73
2022/10/11 00:17:06;;;;;;;11.88;2.00;;;;;;;;;;5055468;28;20722;-76
2022/10/11 00:19:33;;;;;;;8.27;3.13;;;;;;;;;;5056137;28;20045;-71
2022/10/11 00:21:59;;;;;;;4.72;1.50;;;;;;;;;;5058863;28;21303;-72
2022/10/11 00:24:25;;;;;;;2.83;1.80;;;;;;;;;;5056306;28;20234;-72
2022/10/11 00:26:51;;;;;;;3.85;1.63;;;;;;;;;;5057939;28;20115;-73
2022/10/11 00:29:17;;;;;;;6.18;1.80;;;;;;;;;;5042207;28;20542;-72
2022/10/11 00:31:43;;;;;;;6.05;1.95;;;;;;;;;;5070914;28;20052;-72
2022/10/11 00:34:10;;;;;;;8.30;3.58;;;;;;;;;;5051310;28;20033;-72
2022/10/11 00:36:36;;;;;;;9.07;3.75;;;;;;;;;;5051999;28;20044;-72
2022/10/11 00:39:04;;;;;;;9.38;3.20;;;;;;;;;;5075831;28;20538;-73
2022/10/11 00:41:30;;;;;;;5.28;2.17;;;;;;;;;;5076274;28;20091;-73
2022/10/11 00:44:13;;;;;;;5.55;1.95;;;;;;;;;;5074015;28;20629;-72
2022/10/11 00:46:42;;;;;;;6.45;1.63;;;;;;;;;;5057662;28;20136;-72
2022/10/11 00:49:21;;;;;;;3.40;1.55;;;;;;;;;;5066387;28;20382;-72
2022/10/11 00:51:56;;;;;;;5.38;1.88;;;;;;;;;;5077600;28;20050;-72
2022/10/11 00:54:24;;;;;;;8.55;1.88;;;;;;;;;;5074879;28;20037;-72
2022/10/11 00:56:53;;;;;;;7.38;2.13;;;;;;;;;;5058302;28;20048;-72
2022/10/11 00:59:22;;;;;;;5.72;1.85;;;;;;;;;;5076742;28;20040;-72
2022/10/11 01:01:48;;;;;;;8.27;1.50;;;;;;;;;;5073988;28;20051;-73
2022/10/11 01:04:14;;;;;;;4.03;1.50;;;;;;;;;;5075291;28;20046;-72
2022/10/11 01:06:41;;;;;;;5.97;2.00;;;;;;;;;;5072407;28;20044;-72
2022/10/11 01:09:08;;;;;;;6.53;2.08;;;;;;;;;;5044536;28;20611;-73
2022/10/11 01:11:35;;;;;;;7.65;1.80;;;;;;;;;;5050471;28;20080;-72
2022/10/11 01:14:13;;;;;;;5.78;2.35;;;;;;;;;;5066424;28;20052;-72
2022/10/11 01:16:39;;;;;;;9.98;2.03;;;;;;;;;;5076452;28;20495;-72
2022/10/11 01:19:24;;;;;;;7.53;2.33;;;;;;;;;;5077205;28;20048;-72
2022/10/11 01:21:50;;;;;;;5.70;1.48;;;;;;;;;;5075523;28;20051;-72
2022/10/11 01:24:31;;;;;;;6.03;1.92;;;;;;;;;;5064671;28;20040;-72
2022/10/11 01:27:03;;;;;;;9.63;1.83;;;;;;;;;;5074738;28;20064;-72
2022/10/11 01:29:38;;;;;;;6.53;2.50;;;;;;;;;;5053069;28;20062;-72
2022/10/11 01:32:19;;;;;;;10.30;2.55;;;;;;;;;;5062825;28;20073;-72
2022/10/11 01:34:56;;;;;;;8.48;2.00;;;;;;;;;;5073538;28;20978;-72
2022/10/11 01:37:29;;;;;;;10.63;2.58;;;;;;;;;;5076095;28;20131;-72
2022/10/11 01:39:58;;;;;;;9.80;2.15;;;;;;;;;;5058160;28;20080;-72
2022/10/11 01:42:24;;;;;;;9.90;2.03;;;;;;;;;;5068597;28;20041;-73
2022/10/11 01:44:51;;;;;;;6.00;2.10;;;;;;;;;;5098514;28;20047;-72
2022/10/11 01:47:21;;;;;;;9.18;2.78;;;;;;;;;;5093061;28;20037;-72
2022/10/11 01:49:52;;;;;;;5.72;2.00;;;;;;;;;;5062845;28;20122;-73
2022/10/11 01:52:18;;;;;;;7.72;1.65;;;;;;;;;;5066829;28;20135;-72
2022/10/11 01:54:47;;;;;;;4.68;1.50;;;;;;;;;;5074871;28;20985;-72
2022/10/11 01:57:32;;;;;;;7.13;2.33;;;;;;;;;;5056869;28;20040;-72
2022/10/11 02:00:15;;;;;;;6.07;1.58;;;;;;;;;;5077334;28;21226;-72
2022/10/11 02:02:44;;;;;;;13.05;2.50;;;;;;;;;;5070099;28;20561;-73
2022/10/11 02:05:26;;;;;;;3.40;2.58;;;;;;;;;;5078635;28;20556;-72
2022/10/11 02:08:00;;;;;;;4.57;2.20;;;;;;;;;;5051405;28;20049;-72
2022/10/11 02:10:32;;;;;;;4.40;1.95;;;;;;;;;;5077638;28;20553;-72
2022/10/11 02:12:58;;;;;;;;;;;;;;;;;;5061003;28;20052;-73
2022/10/11 02:15:26;;;;;;;10.25;2.50;;;;;;;;;;5069346;28;19920;-72
2022/10/11 02:17:55;;;;;;;8.85;2.65;;;;;;;;;;5080573;28;20041;-73
2022/10/11 02:20:24;;;;;;;10.95;2.22;;;;;;;;;;5054252;28;20040;-72
2022/10/11 02:22:52;;;;;;;6.80;1.60;;;;;;;;;;5078354;28;20119;-73
2022/10/11 02:25:20;;;;;;;17.60;3.33;;;;;;;;;;5061702;28;20049;-73
2022/10/11 02:27:48;;;;;;;6.47;3.03;;;;;;;;;;5079818;28;20110;-72
2022/10/11 02:30:14;;;;;;;8.73;1.90;;;;;;;;;;5041072;28;20995;-72
2022/10/11 02:32:41;;;;;;;7.18;2.08;;;;;;;;;;5056437;28;20049;-72
2022/10/11 02:35:08;;;;;;;14.68;3.25;;;;;;;;;;5054800;28;20047;-72
2022/10/11 02:38:00;;;;;;;11.20;2.95;;;;;;;;;;5058216;28;20041;-72
2022/10/11 02:40:31;;;;;;;5.50;1.70;;;;;;;;;;5038444;28;20111;-72
2022/10/11 02:42:58;;;;;;;12.55;5.28;;;;;;;;;;5042127;28;20041;-73
2022/10/11 02:45:30;;;;;;;10.18;2.70;;;;;;;;;;5056423;28;21053;-73
2022/10/11 02:47:57;;;;;;;3.65;1.88;;;;;;;;;;5059758;28;20482;-72
2022/10/11 02:50:23;;;;;;;6.55;2.92;;;;;;;;;;5055848;28;20044;-72
2022/10/11 02:52:49;;;;;;;7.45;2.35;;;;;;;;;;5052474;28;20053;-72
2022/10/11 02:55:15;;;;;;;5.30;1.88;;;;;;;;;;5057593;28;20038;-72
2022/10/11 02:57:41;;;;;;;8.10;2.63;;;;;;;;;;5057617;28;20056;-72
2022/10/11 03:00:08;;;;;;;7.68;2.60;;;;;;;;;;5053095;28;20419;-72
2022/10/11 03:02:34;;;;;;;6.70;2.20;;;;;;;;;;5036103;28;20043;-72
2022/10/11 03:05:00;;;;;;;13.18;2.25;;;;;;;;;;5041304;28;20545;-72
2022/10/11 03:07:26;;;;;;;16.48;2.50;;;;;;;;;;5029494;28;20119;-72
2022/10/11 03:09:52;;;;;;;7.15;2.15;;;;;;;;;;5035097;28;20091;-72
2022/10/11 03:12:18;;;;;;;6.22;2.00;;;;;;;;;;5032284;28;20102;-72
2022/10/11 03:14:44;;;;;;;6.88;2.20;;;;;;;;;;5047269;28;20526;-73
2022/10/11 03:17:11;;;;;;;11.55;2.95;;;;;;;;;;5050842;28;20048;-72
2022/10/11 03:19:37;;;;;;;15.82;4.10;;;;;;;;;;5053534;28;20048;-73
2022/10/11 03:22:03;;;;;;;13.25;2.72;;;;;;;;;;5053689;28;20107;-72
2022/10/11 03:24:29;;;;;;;7.20;1.60;;;;;;;;;;5056877;28;20612;-72
2022/10/11 03:26:55;;;;;;;4.90;2.40;;;;;;;;;;5033588;28;20037;-72
2022/10/11 03:29:21;;;;;;;9.60;1.90;;;;;;;;;;5067643;28;20608;-73
2022/10/11 03:31:47;;;;;;;10.02;2.95;;;;;;;;;;5053385;28;20055;-72
2022/10/11 03:34:13;;;;;;;10.95;2.38;;;;;;;;;;5072923;28;20051;-73
2022/10/11 03:36:39;;;;;;;6.20;2.15;;;;;;;;;;5059202;28;20189;-72
2022/10/11 03:39:06;;;;;;;8.38;2.45;;;;;;;;;;5075186;28;20040;-72
2022/10/11 03:41:32;;;;;;;8.68;1.98;;;;;;;;;;5054194;28;20118;-72
2022/10/11 03:43:58;;;;;;;3.53;1.45;;;;;;;;;;5074056;28;20044;-72
2022/10/11 03:46:24;;;;;;;8.00;3.72;;;;;;;;;;5075565;28;20080;-72
2022/10/11 03:48:50;;;;;;;19.92;3.13;;;;;;;;;;5058250;28;20036;-72
2022/10/11 03:51:16;;;;;;;6.93;1.83;;;;;;;;;;5070136;28;20102;-71
2022/10/11 03:53:42;;;;;;;11.73;2.00;;;;;;;;;;5067561;28;20556;-72
2022/10/11 03:56:08;;;;;;;7.10;1.80;;;;;;;;;;5070851;28;20044;-72
2022/10/11 03:58:35;;;;;;;9.10;2.28;;;;;;;;;;5058060;28;20064;-72
2022/10/11 04:01:01;;;;;;;12.18;2.75;;;;;;;;;;5070128;28;20102;-72
2022/10/11 04:03:27;;;;;;;7.95;3.00;;;;;;;;;;5048437;28;20766;-72
2022/10/11 04:05:53;;;;;;;10.38;3.05;;;;;;;;;;5062747;28;20084;-72
2022/10/11 04:08:19;;;;;;;8.02;2.40;;;;;;;;;;5066315;28;20048;-72
2022/10/11 04:10:45;;;;;;;7.15;2.15;;;;;;;;;;5051792;28;20051;-72
2022/10/11 04:13:11;;;;;;;12.10;2.65;;;;;;;;;;5068665;28;20045;-72
2022/10/11 04:15:38;;;;;;;6.65;1.77;;;;;;;;;;5074347;28;20102;-72
2022/10/11 04:18:05;;;;;;;9.95;2.78;;;;;;;;;;5072193;28;20047;-72
2022/10/11 04:20:31;;;;;;;7.05;3.28;;;;;;;;;;5051733;28;20048;-71
2022/10/11 04:22:57;;;;;;;13.35;2.53;;;;;;;;;;5073698;28;20098;-72
2022/10/11 04:25:23;;;;;;;6.35;1.65;;;;;;;;;;5053007;28;20065;-72
2022/10/11 04:27:49;;;;;;;8.85;3.13;;;;;;;;;;5071827;28;20047;-72
2022/10/11 04:30:15;;;;;;;6.05;2.38;;;;;;;;;;5073606;28;20071;-72
2022/10/11 04:32:42;;;;;;;9.00;3.72;;;;;;;;;;5073982;28;20062;-72
2022/10/11 04:35:08;;;;;;;13.10;3.30;;;;;;;;;;5056138;28;20615;-71
2022/10/11 04:37:34;;;;;;;12.63;3.95;;;;;;;;;;5072876;28;20056;-72
2022/10/11 04:40:00;;;;;;;7.20;2.35;;;;;;;;;;5071149;28;20932;-72
2022/10/11 04:42:27;;;;;;;7.43;3.13;;;;;;;;;;5070236;28;20211;-71
2022/10/11 04:44:53;;;;;;;10.20;2.58;;;;;;;;;;5076061;28;20033;-72
2022/10/11 04:47:19;;;;;;;7.40;2.33;;;;;;;;;;5076779;28;20041;-72
2022/10/11 04:49:45;;;;;;;7.43;3.33;;;;;;;;;;5075188;28;20050;-72
2022/10/11 04:52:11;;;;;;;6.38;2.22;;;;;;;;;;5059005;28;20041;-72
2022/10/11 04:54:37;;;;;;;8.23;1.88;;;;;;;;;;5075250;28;20036;-72
2022/10/11 04:57:03;;;;;;;6.68;2.47;;;;;;;;;;5076816;28;20044;-71
2022/10/11 04:59:29;;;;;;;6.63;2.03;;;;;;;;;;5053264;28;20231;-71
2022/10/11 05:01:56;;;;;;;18.63;2.55;;;;;;;;;;5075037;28;20044;-71
2022/10/11 05:04:22;;;;;;;26.92;4.85;;;;;;;;;;5067147;28;20032;-71
2022/10/11 05:06:48;;;;;;;10.00;3.08;;;;;;;;;;5075559;28;20151;-72
2022/10/11 05:09:17;;;;;;;9.88;2.25;;;;;;;;;;5075531;28;20526;-81
2022/10/11 05:11:43;;;;;;;8.45;2.22;;;;;;;;;;5066543;28;20195;-72
2022/10/11 05:14:09;;;;;;;8.55;2.17;;;;;;;;;;5049759;28;20876;-72
2022/10/11 05:16:35;;;;;;;16.33;4.63;;;;;;;;;;5073155;28;20044;-72
2022/10/11 05:19:01;;;;;;;5.07;1.92;;;;;;;;;;5061528;28;20072;-72
2022/10/11 05:21:28;;;;;;;8.52;2.85;;;;;;;;;;5047132;28;20037;-72
2022/10/11 05:23:55;;;;;;;9.10;2.30;;;;;;;;;;5054948;28;20199;-73
2022/10/11 05:26:21;;;;;;;8.43;2.15;;;;;;;;;;5050469;28;20123;-71
2022/10/11 05:28:48;;;;;;;7.15;2.88;;;;;;;;;;5072151;28;20087;-80
2022/10/11 05:31:15;;;;;;;6.55;2.03;;;;;;;;;;5042269;28;20087;-72
2022/10/11 05:33:41;;;;;;;6.20;1.98;;;;;;;;;;5061174;28;20043;-72
2022/10/11 05:36:08;;;;;;;10.20;2.85;;;;;;;;;;5070220;28;20330;-71
2022/10/11 05:38:34;;;;;;;12.77;3.67;;;;;;;;;;5051502;28;20080;-73
2022/10/11 05:41:01;;;;;;;5.63;2.08;;;;;;;;;;5043948;28;20044;-72
2022/10/11 05:43:29;;;;;;;13.68;5.03;;;;;;;;;;5048359;28;20937;-80
2022/10/11 05:46:05;;;;;;;7.35;2.80;;;;;;;;;;5073052;28;20128;-78
2022/10/11 05:48:31;;;;;;;6.50;2.22;;;;;;;;;;5073659;28;20047;-68
2022/10/11 05:51:01;;;;;;;7.38;2.58;;;;;;;;;;5070585;28;20617;-69
2022/10/11 05:53:28;;;;;;;6.50;2.33;;;;;;;;;;5050882;28;20039;-70
2022/10/11 05:55:54;;;;;;;9.30;2.28;;;;;;;;;;5050580;28;20122;-70
2022/10/11 05:58:20;;;;;;;8.68;3.85;;;;;;;;;;5050867;28;20123;-71
2022/10/11 06:00:46;;;;;;;5.28;1.90;;;;;;;;;;5072834;28;20036;-70
2022/10/11 06:03:13;;;;;;;11.85;2.65;;;;;;;;;;5066352;28;20051;-71
2022/10/11 06:05:39;;;;;;;8.88;2.13;;;;;;;;;;5074107;28;20083;-70
2022/10/11 06:08:07;;;;;;;8.48;2.00;;;;;;;;;;5060627;28;20719;-70
2022/10/11 06:10:33;;;;;;;9.30;2.90;;;;;;;;;;5049666;28;20608;-71
2022/10/11 06:13:00;;;;;;;4.53;1.75;;;;;;;;;;5063286;28;20041;-70
2022/10/11 06:15:26;;;;;;;8.93;2.08;;;;;;;;;;5071179;28;20037;-71
2022/10/11 06:17:52;;;;;;;9.32;1.75;;;;;;;;;;5070556;28;20052;-70
2022/10/11 06:20:18;;;;;;;8.93;3.30;;;;;;;;;;5048605;28;20051;-70
2022/10/11 06:22:44;;;;;;;11.50;4.13;;;;;;;;;;5056224;28;20696;-70
2022/10/11 06:25:11;;;;;;;6.47;2.65;;;;;;;;;;5054670;28;20033;-70
2022/10/11 06:27:37;;;;;;;9.15;2.08;;;;;;;;;;5053401;28;20044;-70
2022/10/11 06:30:03;;;;;;;7.60;1.88;;;;;;;;;;5072433;28;20315;-70
2022/10/11 06:32:29;;;;;;;12.20;2.60;;;;;;;;;;5072536;28;20037;-70
2022/10/11 06:34:55;;;;;;;9.68;2.35;;;;;;;;;;5071133;28;20040;-70
2022/10/11 06:37:21;;;;;;;10.30;2.58;;;;;;;;;;5070721;28;20035;-70
2022/10/11 06:39:49;;;;;;;12.02;2.10;;;;;;;;;;5050088;28;20029;-72
2022/10/11 06:42:15;;;;;;;10.00;2.45;;;;;;;;;;5072104;28;20079;-70
2022/10/11 06:44:41;;;;;;;10.50;3.25;;;;;;;;;;5070060;28;20032;-70
2022/10/11 06:47:08;;;;;;;8.10;2.72;;;;;;;;;;5053982;28;20171;-70
2022/10/11 06:49:35;;;;;;;9.57;2.95;;;;;;;;;;5054927;28;20568;-70
2022/10/11 06:52:01;;;;;;;8.80;2.83;;;;;;;;;;5074119;28;20064;-70
2022/10/11 06:54:27;;;;;;;13.85;4.20;;;;;;;;;;5072913;28;20045;-70
2022/10/11 06:56:53;;;;;;;9.38;2.63;;;;;;;;;;5075504;28;20074;-70
2022/10/11 06:59:19;;;;;;;11.70;2.85;;;;;;;;;;5074986;28;20044;-69
2022/10/11 07:01:45;;;;;;;9.00;2.97;;;;;;;;;;5072622;28;20044;-70
2022/10/11 07:04:11;;;;;;;11.00;2.38;;;;;;;;;;5057112;28;20120;-70
2022/10/11 07:06:39;;;;;;;11.48;2.67;;;;;;;;;;5050608;28;20519;-70
2022/10/11 07:09:05;;;;;;;20.05;2.90;;;;;;;;;;5067404;28;20361;-70
2022/10/11 07:11:32;;;;;;;16.85;2.60;;;;;;;;;;5072747;28;20044;-70
2022/10/11 07:13:59;;;;;;;20.70;3.22;;;;;;;;;;5074611;28;20139;-69
2022/10/11 07:16:26;;;;;;;10.43;2.85;;;;;;;;;;5052078;28;20045;-70
2022/10/11 07:18:53;;;;;;;19.05;2.72;;;;;;;;;;5054145;28;20094;-71
2022/10/11 07:21:19;;;;;;;8.30;2.10;;;;;;;;;;5076329;28;20527;-70
2022/10/11 07:23:45;;;;;;;15.25;3.83;;;;;;;;;;5074791;28;20134;-71
2022/10/11 07:26:11;;;;;;;14.50;3.85;;;;;;;;;;5056889;28;20438;-69
2022/10/11 07:28:38;;;;;;;12.88;2.67;;;;;;;;;;5072059;28;20049;-70
2022/10/11 07:31:09;;;;;;;13.02;2.05;;;;;;;;;;5073666;28;20071;-70
2022/10/11 07:33:35;;;;;;;6.28;3.03;;;;;;;;;;5053836;28;20044;-70
2022/10/11 07:36:03;;;;;;;9.10;2.88;;;;;;;;;;5067665;28;20118;-70
2022/10/11 07:38:29;;;;;;;10.18;2.80;;;;;;;;;;5076724;28;20041;-70
2022/10/11 07:40:56;;;;;;;11.52;2.47;;;;;;;;;;5076412;28;20092;-70
2022/10/11 07:43:23;;;;;;;2.78;1.48;;;;;;;;;;5049642;28;20139;-70
2022/10/11 07:45:52;;;;;;;14.20;2.35;;;;;;;;;;5049630;28;20112;-70
2022/10/11 07:48:18;;;;;;;5.97;1.92;;;;;;;;;;5073519;28;20521;-70
2022/10/11 07:50:44;;;;;;;11.55;2.22;;;;;;;;;;5072683;28;20036;-70
2022/10/11 07:53:10;;;;;;;11.07;2.55;;;;;;;;;;5073966;28;20048;-69
2022/10/11 07:55:41;;;;;;;8.57;1.90;;;;;;;;;;5075573;28;20052;-70
2022/10/11 07:58:11;;;;;;;7.30;2.30;;;;;;;;;;5072269;28;20043;-70
2022/10/11 08:00:38;;;;;;;13.80;4.30;;;;;;;;;;5075534;28;20060;-70
2022/10/11 08:03:05;;;;;;;9.02;2.03;;;;;;;;;;5055896;28;20570;-70
2022/10/11 08:05:31;;;;;;;4.65;1.95;;;;;;;;;;5076209;28;20586;-71
2022/10/11 08:07:58;;;;;;;15.45;2.85;;;;;;;;;;5075039;28;20584;-70
2022/10/11 08:10:25;;;;;;;7.35;2.33;;;;;;;;;;5046189;28;20763;-70
2022/10/11 08:12:52;;;;;;;6.88;2.05;;;;;;;;;;5070950;28;20102;-70
2022/10/11 08:15:18;;;;;;;9.90;2.03;;;;;;;;;;5072419;28;20040;-70
2022/10/11 08:17:44;;;;;;;10.13;4.50;;;;;;;;;;5072251;28;20063;-69
2022/10/11 08:20:13;;;;;;;8.10;2.53;;;;;;;;;;5073556;28;20040;-72
2022/10/11 08:22:39;;;;;;;7.45;2.72;;;;;;;;;;5052516;28;20086;-70
2022/10/11 08:25:05;;;;;;;4.75;2.25;;;;;;;;;;5070932;28;20075;-70
2022/10/11 08:27:31;;;;;;;11.30;2.13;;;;;;;;;;5072341;28;20153;-70
2022/10/11 08:29:57;;;;;;;14.48;2.55;;;;;;;;;;5050020;28;20500;-70
2022/10/11 08:32:23;;;;;;;7.03;1.95;;;;;;;;;;5074102;28;20040;-70
2022/10/11 08:34:50;;;;;;;19.48;3.08;;;;;;;;;;5051245;28;20152;-70
2022/10/11 08:37:16;;;;;;;11.73;2.55;;;;;;;;;;5073032;28;20051;-71
2022/10/11 08:39:42;;;;;;;8.00;1.80;;;;;;;;;;5050658;28;20163;-70
2022/10/11 08:42:15;;;;;;;6.82;2.53;;;;;;;;;;5047539;28;20079;-70
2022/10/11 08:44:43;;;;;;;10.20;3.92;;;;;;;;;;5073945;28;20056;-70
2022/10/11 08:47:26;;;;;;;12.93;2.42;;;;;;;;;;5071678;28;20052;-71
2022/10/11 08:49:53;;;;;;;5.13;1.50;;;;;;;;;;5056686;28;20045;-70
2022/10/11 08:52:21;;;;;;;12.30;2.25;;;;;;;;;;5051371;28;20059;-70
2022/10/11 08:54:51;;;;;;;6.53;2.38;;;;;;;;;;5051440;28;20048;-70
2022/10/11 08:57:21;;;;;;;6.22;2.63;;;;;;;;;;5073641;28;20040;-71
2022/10/11 08:59:51;;;;;;;11.93;3.42;;;;;;;;;;5055330;28;20100;-70
2022/10/11 09:02:37;;;;;;;11.95;4.07;;;;;;;;;;5054496;28;20041;-69
2022/10/11 09:05:04;;;;;;;9.93;2.75;;;;;;;;;;5055942;28;20072;-70
2022/10/11 09:07:36;;;;;;;10.80;2.75;;;;;;;;;;5071172;28;20494;-70
2022/10/11 09:10:05;;;;;;;13.02;2.97;;;;;;;;;;5048174;28;20075;-70
2022/10/11 09:12:31;;;;;;;4.18;2.38;;;;;;;;;;5070346;28;21262;-70
2022/10/11 09:14:57;;;;;;;7.38;1.95;;;;;;;;;;5052739;28;20048;-70
2022/10/11 09:17:24;;;;;;;11.45;2.65;;;;;;;;;;5072918;28;20045;-69
2022/10/11 09:20:13;;;;;;;18.50;2.47;;;;;;;;;;5074962;28;20052;-70
2022/10/11 09:23:11;;;;;;;11.50;2.78;;;;;;;;;;5046640;28;20552;-68
2022/10/11 09:25:43;;;;;;;13.75;2.92;;;;;;;;;;5016408;28;20086;-70
2022/10/11 09:28:29;;;;;;;12.55;3.38;;;;;;;;;;5074190;28;20044;-70
2022/10/11 09:30:55;;;;;;;10.02;2.25;;;;;;;;;;5071176;28;21087;-70
2022/10/11 09:33:45;;;;;;;13.75;2.20;;;;;;;;;;5056567;28;21346;-71
2022/10/11 09:36:31;;;;;;;10.38;2.88;;;;;;;;;;5053627;28;20052;-70
2022/10/11 09:39:23;;;;;;;18.42;4.15;;;;;;;;;;5041062;28;20043;-71
2022/10/11 09:41:59;;;;;;;13.57;2.83;;;;;;;;;;5040266;28;20063;-71
2022/10/11 09:44:26;;;;;;;5.10;1.95;;;;;;;;;;5048368;28;20080;-71
2022/10/11 09:46:53;;;;;;;7.13;2.40;;;;;;;;;;5075284;28;20051;-70
2022/10/11 09:49:21;;;;;;;14.68;2.50;;;;;;;;;;5062527;28;20127;-70
2022/10/11 09:51:53;;;;;;;6.78;2.75;;;;;;;;;;5049970;28;20037;-71
2022/10/11 09:54:26;;;;;;;12.63;1.95;;;;;;;;;;5070766;28;20082;-70
2022/10/11 09:56:53;;;;;;;4.40;1.98;;;;;;;;;;5073949;28;20083;-71
2022/10/11 09:59:34;;;;;;;6.20;2.95;;;;;;;;;;5053079;28;20127;-70
2022/10/11 10:02:13;;;;;;;6.00;2.22;;;;;;;;;;5056872;28;20053;-71
2022/10/11 10:04:58;;;;;;;11.13;2.22;;;;;;;;;;5055042;28;20051;-70
2022/10/11 10:07:25;;;;;;;5.93;2.70;;;;;;;;;;5053448;28;20040;-71
2022/10/11 10:09:52;;;;;;;5.43;2.65;;;;;;;;;;5054483;28;20475;-70
2022/10/11 10:12:22;;;;;;;8.05;1.98;;;;;;;;;;5073547;28;20037;-71
2022/10/11 10:15:08;;;;;;;8.93;2.67;;;;;;;;;;5074349;28;20048;-72
2022/10/11 10:17:35;;;;;;;7.22;2.53;;;;;;;;;;5051100;28;20049;-71
2022/10/11 10:20:04;;;;;;;7.18;1.95;;;;;;;;;;5049559;28;20045;-70
2022/10/11 10:22:31;;;;;;;2.80;1.55;;;;;;;;;;5060849;28;20041;-71
2022/10/11 10:24:58;;;;;;;6.68;2.25;;;;;;;;;;5055881;28;20095;-70
2022/10/11 10:27:29;;;;;;;6.80;1.70;;;;;;;;;;5057355;28;20546;-70
2022/10/11 10:30:17;;;;;;;9.32;2.42;;;;;;;;;;5070569;28;20063;-73
2022/10/11 10:32:50;;;;;;;9.18;1.45;;;;;;;;;;5070963;28;20475;-78
2022/10/11 10:35:25;;;;;;;5.20;1.75;;;;;;;;;;5059553;28;20044;-72
2022/10/11 10:38:00;;;;;;;7.38;2.67;;;;;;;;;;5073462;28;20125;-73
2022/10/11 10:40:44;;;;;;;11.45;2.13;;;;;;;;;;5078264;28;20032;-70
2022/10/11 10:43:18;;;;;;;13.57;2.30;;;;;;;;;;5076105;28;20037;-70
2022/10/11 10:45:47;;;;;;;4.95;3.15;;;;;;;;;;5058371;28;20068;-70
2022/10/11 10:48:42;;;;;;;5.13;2.17;;;;;;;;;;5076195;28;20051;-70
2022/10/11 10:51:16;;;;;;;5.82;3.17;;;;;;;;;;5036736;28;20109;-71
2022/10/11 10:53:49;;;;;;;7.65;1.80;;;;;;;;;;5053490;28;20102;-70
2022/10/11 10:56:17;;;;;;;5.22;1.90;;;;;;;;;;5075658;28;20044;-69
2022/10/11 10:58:43;;;;;;;6.07;1.52;;;;;;;;;;5071929;28;20044;-70
2022/10/11 11:01:09;;;;;;;4.60;1.90;;;;;;;;;;5073578;28;20110;-69
2022/10/11 11:03:54;;;;;;;5.07;1.80;;;;;;;;;;5075641;28;20042;-71
2022/10/11 11:06:32;;;;;;;4.82;1.40;;;;;;;;;;5053092;28;21279;-71
2022/10/11 11:08:58;;;;;;;9.82;2.03;;;;;;;;;;5059455;28;20059;-70
2022/10/11 11:11:45;;;;;;;6.97;1.80;;;;;;;;;;5056535;28;20067;-70
2022/10/11 11:14:20;;;;;;;4.43;1.83;;;;;;;;;;5061061;28;20064;-70
2022/10/11 11:16:46;;;;;;;8.25;1.73;;;;;;;;;;5075703;28;20045;-70
2022/10/11 11:19:31;;;;;;;3.38;1.80;;;;;;;;;;5078208;28;20552;-70
2022/10/11 11:25:11;;;;;;;8.15;3.00;;;;;;;;;;5062011;28;20053;-73
2022/10/11 11:27:37;;;;;;;7.82;1.23;;;;;;;;;;5071660;28;20190;-73
2022/10/11 11:30:03;;;;;;;10.45;3.03;;;;;;;;;;5073178;28;20063;-74
2022/10/11 11:32:30;;;;;;;4.90;1.50;;;;;;;;;;5054779;28;20182;-74
2022/10/11 11:35:00;;;;;;;10.73;2.53;;;;;;;;;;5047167;28;20179;-74
2022/10/11 11:37:29;;;;;;;5.32;1.75;;;;;;;;;;5052231;28;20040;-74
2022/10/11 11:40:13;;;;;;;7.68;1.65;;;;;;;;;;5074481;28;20122;-74
2022/10/11 11:42:48;;;;;;;3.42;1.30;;;;;;;;;;5073982;28;20916;-74
2022/10/11 11:45:23;;;;;;;7.35;2.00;;;;;;;;;;5054591;28;20545;-74
2022/10/11 11:48:04;;;;;;;10.23;1.70;;;;;;;;;;5074743;28;20055;-74
2022/10/11 11:50:43;;;;;;;5.75;1.83;;;;;;;;;;5054087;28;20040;-74
2022/10/11 11:53:14;;;;;;;4.13;1.63;;;;;;;;;;5052203;28;20109;-74
2022/10/11 11:55:59;;;;;;;4.50;1.73;;;;;;;;;;5055478;28;20044;-74
2022/10/11 11:58:28;;;;;;;8.90;2.28;;;;;;;;;;5075253;28;20036;-74
2022/10/11 12:01:15;;;;;;;8.55;2.63;;;;;;;;;;5062575;28;20048;-74
2022/10/11 12:03:46;;;;;;;3.95;2.05;;;;;;;;;;5063271;28;20053;-74
2022/10/11 12:06:12;;;;;;;7.45;1.85;;;;;;;;;;5074728;28;20136;-74
2022/10/11 12:08:41;;;;;;;6.53;1.77;;;;;;;;;;5072871;28;20067;-74
2022/10/11 12:11:40;;;;;;;3.88;1.67;;;;;;;;;;5058406;28;20146;-74
2022/10/11 12:14:27;;;;;;;15.05;2.50;;;;;;;;;;5026605;28;20106;-74
2022/10/11 12:17:08;;;;;;;11.77;1.83;;;;;;;;;;5053407;28;20107;-74
2022/10/11 12:19:36;;;;;;;10.77;2.38;;;;;;;;;;5058780;28;20036;-74
2022/10/11 12:22:17;;;;;;;17.75;2.95;;;;;;;;;;5050512;28;21280;-74
2022/10/11 12:24:59;;;;;;;6.72;1.70;;;;;;;;;;5073950;28;20633;-74
2022/10/11 12:27:35;;;;;;;11.07;1.55;;;;;;;;;;5073819;28;20053;-74
2022/10/11 12:30:04;;;;;;;2.53;1.40;;;;;;;;;;5055431;28;20059;-74
2022/10/11 12:32:33;;;;;;;7.57;2.03;;;;;;;;;;5072506;28;20593;-75
2022/10/11 12:35:32;;;;;;;8.68;1.60;;;;;;;;;;5051608;28;20132;-74
2022/10/11 12:38:20;;;;;;;9.95;1.70;;;;;;;;;;5038170;28;20661;-74
2022/10/11 12:40:47;;;;;;;6.53;1.90;;;;;;;;;;5054265;28;20037;-74
2022/10/11 12:46:32;;;;;;;6.43;1.60;;;;;;;;;;5072763;28;20049;-73
2022/10/11 12:49:00;;;;;;;6.95;1.88;;;;;;;;;;5073849;28;20052;-74
2022/10/11 12:51:44;;;;;;;6.60;1.80;;;;;;;;;;5072747;28;21046;-74
2022/10/11 12:54:22;;;;;;;4.10;1.30;;;;;;;;;;5066658;28;20573;-73
2022/10/11 12:57:10;;;;;;;8.18;1.92;;;;;;;;;;5040276;28;20119;-74
2022/10/11 12:59:40;;;;;;;6.00;2.13;;;;;;;;;;5052764;28;20041;-74
2022/10/11 13:02:25;;;;;;;10.70;1.50;;;;;;;;;;5073047;28;20051;-73
2022/10/11 13:04:51;;;;;;;6.70;1.50;;;;;;;;;;5056388;28;20052;-74
2022/10/11 13:07:22;;;;;;;2.75;1.23;;;;;;;;;;5061001;28;20119;-73
2022/10/11 13:09:52;;;;;;;2.03;1.45;;;;;;;;;;5045900;28;20056;-74
2022/10/11 13:12:20;;;;;;;4.97;1.70;;;;;;;;;;5051331;28;20549;-73
2022/10/11 13:15:07;;;;;;;6.28;1.75;;;;;;;;;;5072822;28;20047;-74
2022/10/11 13:17:35;;;;;;;14.38;3.75;;;;;;;;;;5073049;28;20044;-73
2022/10/11 13:20:21;;;;;;;8.75;1.45;;;;;;;;;;5054809;28;21044;-73
2022/10/11 13:22:48;;;;;;;5.00;1.58;;;;;;;;;;5071912;28;20144;-74
2022/10/11 13:25:22;;;;;;;8.57;1.80;;;;;;;;;;5055454;28;20094;-73
2022/10/11 13:27:49;;;;;;;6.10;3.22;;;;;;;;;;5050807;28;20044;-74
2022/10/11 13:30:35;;;;;;;7.57;1.40;;;;;;;;;;5046861;28;20057;-73
2022/10/11 13:33:18;;;;;;;2.50;0.98;;;;;;;;;;5068945;28;20053;-74
2022/10/11 13:35:44;;;;;;;6.72;1.20;;;;;;;;;;5047724;28;20105;-74
2022/10/11 13:38:22;;;;;;;11.20;1.90;;;;;;;;;;5050564;28;20656;-73
2022/10/11 13:40:51;;;;;;;7.10;1.20;;;;;;;;;;5071877;28;20530;-74
2022/10/11 13:43:22;;;;;;;7.55;3.00;;;;;;;;;;5049304;28;20128;-73
2022/10/11 13:45:48;;;;;;;9.95;2.33;;;;;;;;;;5050319;28;20520;-73
2022/10/11 13:48:15;;;;;;;5.25;1.98;;;;;;;;;;5047547;28;20052;-73
2022/10/11 13:50:49;;;;;;;3.15;1.63;;;;;;;;;;5074756;28;21827;-74
2022/10/11 13:53:16;;;;;;;3.17;1.25;;;;;;;;;;5071580;28;20051;-74
2022/10/11 13:55:43;;;;;;;7.15;1.85;;;;;;;;;;5070369;28;20044;-74
2022/10/11 13:58:10;;;;;;;4.13;1.67;;;;;;;;;;5073430;28;20048;-74
2022/10/11 14:00:37;;;;;;;10.13;1.42;;;;;;;;;;5055514;28;20086;-74
2022/10/11 14:03:18;;;;;;;5.50;1.90;;;;;;;;;;5056030;28;20040;-74
2022/10/11 14:05:52;;;;;;;4.88;1.38;;;;;;;;;;5052596;28;20084;-73
2022/10/11 14:08:27;;;;;;;5.47;1.17;;;;;;;;;;5063908;28;20147;-74
2022/10/11 14:10:53;;;;;;;4.63;1.60;;;;;;;;;;5072414;28;20095;-74
2022/10/11 14:13:24;;;;;;;5.10;1.30;;;;;;;;;;5048449;28;20080;-73
2022/10/11 14:16:03;;;;;;;4.88;1.77;;;;;;;;;;5056917;28;20076;-74
2022/10/11 14:18:39;;;;;;;9.90;2.97;;;;;;;;;;5070603;28;20120;-74
2022/10/11 14:21:17;;;;;;;4.28;1.20;;;;;;;;;;5061596;28;20052;-74
2022/10/11 14:23:43;;;;;;;5.32;1.17;;;;;;;;;;5052542;28;20079;-74
2022/10/11 14:26:13;;;;;;;2.10;1.10;;;;;;;;;;5061169;28;20071;-74
2022/10/11 14:28:39;;;;;;;6.05;1.67;;;;;;;;;;5063742;28;20056;-74
2022/10/11 14:31:05;;;;;;;11.95;1.45;;;;;;;;;;5052214;28;20049;-73
2022/10/11 14:33:32;;;;;;;16.15;2.00;;;;;;;;;;5028968;28;20037;-73
2022/10/11 14:35:58;;;;;;;4.78;1.65;;;;;;;;;;5050900;28;20148;-75
2022/10/11 14:38:24;;;;;;;11.68;2.92;;;;;;;;;;5067626;28;20040;-73
2022/10/11 14:40:51;;;;;;;9.10;2.50;;;;;;;;;;5052188;28;20045;-74
2022/10/11 14:43:17;;;;;;;3.90;1.10;;;;;;;;;;5049709;28;20045;-74
2022/10/11 14:45:43;;;;;;;4.68;1.55;;;;;;;;;;5028772;28;20056;-74
2022/10/11 14:48:10;;;;;;;6.75;1.73;;;;;;;;;;5048858;28;20045;-74
2022/10/11 14:50:39;;;;;;;2.15;1.08;;;;;;;;;;5034959;28;20096;-72
2022/10/11 14:53:06;;;;;;;5.20;1.40;;;;;;;;;;5034207;28;20049;-73
2022/10/11 14:55:32;;;;;;;11.95;2.13;;;;;;;;;;5054082;28;20041;-75
2022/10/11 14:57:59;;;;;;;3.03;1.00;;;;;;;;;;5050451;28;20044;-73
2022/10/11 15:00:27;;;;;;;3.70;1.13;;;;;;;;;;5052242;28;20034;-72